LXGBLESO

Guest
Details From LXGB - Gibraltar
To LESO - San Sebastian
Flight Number -
Tags Generated
Created
Modified
Stats Distance 463 nm / 857 km
Max Altitude 0 ft / 0 m
Waypoints 4
Social Downloads 0
Likes 0
Share VATSIM

Download

Looking for another format? Having issues loading an existing format? Contact us
Advertisement - Login to hide

Notes

Generated

Route

LXGB BOGAS SSN LESO

ID Type Via Altitude Latitude Longitude Leg Dist Tot Dist Heading (true) Name
O LXGB APT - 0 ft / 0 m 36.15080˚ -5.35977˚ - 0 nm - -
BOGAS FIX - 0 ft / 0 m 39.50610˚ -3.82465˚ 214 nm 214 nm 19° / 20° -
SSN VOR - 0 ft / 0 m 43.31120˚ -1.83039˚ 245 nm 459 nm 21° / 22° SAN SEBASTIAN VOR-DME
O LESO APT - 0 ft / 0 m 43.35035˚ -1.79740˚ 2 nm 462 nm 31° / 32° -

Altitude Profile

Advertisement - Login to hide

Weather


0- 5 10 15 20 25 30 35+ Temperature / ° C

Clouds and Precipitation
Forecast for 2018-05-21 18:00 UTC. Updated 2 minutes ago

Ground ~20,000 ft ~40,000 ft Winds

LXGB

Details ICAO LXGB (GIB)
Name Gibraltar
Region Gibralter
Timezone Europe/Gibraltar (UTC+2.0)
Stats Elevation 15 ft / 5 m (AMSL)
Location 36.151209° -5.349664°
Runways 1
Magnetic Variation 1.073° W

METAR

LXGB 211450Z 18015G26KT 9999 FEW035 21/14 Q1012 NOSIG

Decode

TAF

Not found

Departure Runways

ID Width Length Bearing (true) Bearing (mag) Surface Threshold Offset Overrun Length
27 151 ft / 46 m 5,992 ft / 1,826 m 267.56° 268.63° Asphalt 367 ft / 112 m 89 ft / 27 m
9 151 ft / 46 m 5,992 ft / 1,826 m 87.54° 88.61° Asphalt 299 ft / 91 m 52 ft / 16 m

LESO

Details ICAO LESO (EAS)
Name San_Sebastian
Region Spain
Timezone Europe/Madrid (UTC+2.0)
Stats Elevation 14 ft / 4 m (AMSL)
Location 43.356520° -1.790611°
Runways 1
Magnetic Variation 0.244° W

METAR

LESO 211500Z VRB05KT 9999 FEW060TCU 22/16 Q1010

Decode

TAF

TAF LESO 211100Z 2112/2212 VRB04KT 9999 FEW035 TX25/2114Z TN13/2207Z TEMPO 2112/2115 03010KT TEMPO 2112/2203 SHRA SCT035TCU PROB40 TEMPO 2112/2121 VRB15G30KT 3000 TS SCT035CB PROB40 TEMPO 2200/2208 3000 BR BKN010

Decode

Destination Runways

ID Width Length Bearing (true) Bearing (mag) Surface Threshold Offset Overrun Length
04 148 ft / 45 m 5,762 ft / 1,756 m 38.68° 38.92° Asphalt 0 ft / 0 m 0 ft / 0 m
22 148 ft / 45 m 5,762 ft / 1,756 m 218.69° 218.93° Asphalt 0 ft / 0 m 0 ft / 0 m